sensor_id;sensor_type;location;lat;lon;timestamp;P1;P2;P0
51052;PMS5003;37093;37.716;-122.060;2022-08-30T00:01:11;12;11;
51052;PMS5003;37093;37.716;-122.060;2022-08-30T00:03:44;9;9;
51052;PMS5003;37093;37.716;-122.060;2022-08-30T00:06:13;15;13;
51052;PMS5003;37093;37.716;-122.060;2022-08-30T00:08:43;15;11;
51052;PMS5003;37093;37.716;-122.060;2022-08-30T00:11:13;16;12;
51052;PMS5003;37093;37.716;-122.060;2022-08-30T00:13:44;10;10;
51052;PMS5003;37093;37.716;-122.060;2022-08-30T00:16:14;11;10;
51052;PMS5003;37093;37.716;-122.060;2022-08-30T00:18:43;14;13;
51052;PMS5003;37093;37.716;-122.060;2022-08-30T00:21:13;15;11;
51052;PMS5003;37093;37.716;-122.060;2022-08-30T00:23:41;11;11;
51052;PMS5003;37093;37.716;-122.060;2022-08-30T00:26:09;18;11;
51052;PMS5003;37093;37.716;-122.060;2022-08-30T00:28:39;12;12;
51052;PMS5003;37093;37.716;-122.060;2022-08-30T00:31:08;13;12;
51052;PMS5003;37093;37.716;-122.060;2022-08-30T00:33:37;17;11;
51052;PMS5003;37093;37.716;-122.060;2022-08-30T00:36:06;17;12;
51052;PMS5003;37093;37.716;-122.060;2022-08-30T00:38:34;14;12;
51052;PMS5003;37093;37.716;-122.060;2022-08-30T00:41:02;14;14;
51052;PMS5003;37093;37.716;-122.060;2022-08-30T00:43:32;19;14;
51052;PMS5003;37093;37.716;-122.060;2022-08-30T00:46:00;13;11;
51052;PMS5003;37093;37.716;-122.060;2022-08-30T00:48:29;16;15;
51052;PMS5003;37093;37.716;-122.060;2022-08-30T00:51:00;13;10;
51052;PMS5003;37093;37.716;-122.060;2022-08-30T00:53:33;21;16;
51052;PMS5003;37093;37.716;-122.060;2022-08-30T00:56:05;16;12;
51052;PMS5003;37093;37.716;-122.060;2022-08-30T00:58:34;20;12;
51052;PMS5003;37093;37.716;-122.060;2022-08-30T01:01:05;14;12;
51052;PMS5003;37093;37.716;-122.060;2022-08-30T01:03:35;16;16;
51052;PMS5003;37093;37.716;-122.060;2022-08-30T01:06:04;14;13;
51052;PMS5003;37093;37.716;-122.060;2022-08-30T01:08:34;17;12;
51052;PMS5003;37093;37.716;-122.060;2022-08-30T01:11:02;16;13;
51052;PMS5003;37093;37.716;-122.060;2022-08-30T01:13:31;16;16;
51052;PMS5003;37093;37.716;-122.060;2022-08-30T01:16:01;17;15;
51052;PMS5003;37093;37.716;-122.060;2022-08-30T01:18:30;20;17;
51052;PMS5003;37093;37.716;-122.060;2022-08-30T01:21:00;21;17;
51052;PMS5003;37093;37.716;-122.060;2022-08-30T01:23:35;18;17;
51052;PMS5003;37093;37.716;-122.060;2022-08-30T01:26:08;15;14;
51052;PMS5003;37093;37.716;-122.060;2022-08-30T01:28:37;57;45;
51052;PMS5003;37093;37.716;-122.060;2022-08-30T01:31:08;29;23;
51052;PMS5003;37093;37.716;-122.060;2022-08-30T01:33:37;22;17;
51052;PMS5003;37093;37.716;-122.060;2022-08-30T01:36:06;24;18;
51052;PMS5003;37093;37.716;-122.060;2022-08-30T01:38:39;20;15;
51052;PMS5003;37093;37.716;-122.060;2022-08-30T01:41:13;17;15;
51052;PMS5003;37093;37.716;-122.060;2022-08-30T01:43:44;29;24;
51052;PMS5003;37093;37.716;-122.060;2022-08-30T01:46:12;27;18;
51052;PMS5003;37093;37.716;-122.060;2022-08-30T01:48:43;23;21;
51052;PMS5003;37093;37.716;-122.060;2022-08-30T01:51:13;23;15;
51052;PMS5003;37093;37.716;-122.060;2022-08-30T01:53:43;22;18;
51052;PMS5003;37093;37.716;-122.060;2022-08-30T01:56:12;19;16;
51052;PMS5003;37093;37.716;-122.060;2022-08-30T01:58:41;17;16;
51052;PMS5003;37093;37.716;-122.060;2022-08-30T02:01:10;18;18;
51052;PMS5003;37093;37.716;-122.060;2022-08-30T02:03:42;25;18;
51052;PMS5003;37093;37.716;-122.060;2022-08-30T02:06:11;20;16;
51052;PMS5003;37093;37.716;-122.060;2022-08-30T02:08:44;27;18;
51052;PMS5003;37093;37.716;-122.060;2022-08-30T02:11:13;26;19;
51052;PMS5003;37093;37.716;-122.060;2022-08-30T02:13:43;19;19;
51052;PMS5003;37093;37.716;-122.060;2022-08-30T02:16:13;22;19;
51052;PMS5003;37093;37.716;-122.060;2022-08-30T02:18:43;22;21;
51052;PMS5003;37093;37.716;-122.060;2022-08-30T02:21:12;20;18;
51052;PMS5003;37093;37.716;-122.060;2022-08-30T02:23:40;25;21;
51052;PMS5003;37093;37.716;-122.060;2022-08-30T02:26:10;21;17;
51052;PMS5003;37093;37.716;-122.060;2022-08-30T02:28:40;17;16;
51052;PMS5003;37093;37.716;-122.060;2022-08-30T02:31:08;28;18;
51052;PMS5003;37093;37.716;-122.060;2022-08-30T02:33:37;22;18;
51052;PMS5003;37093;37.716;-122.060;2022-08-30T02:36:06;19;19;
51052;PMS5003;37093;37.716;-122.060;2022-08-30T02:38:34;17;17;
51052;PMS5003;37093;37.716;-122.060;2022-08-30T02:41:03;21;20;
51052;PMS5003;37093;37.716;-122.060;2022-08-30T02:43:32;24;18;
51052;PMS5003;37093;37.716;-122.060;2022-08-30T02:46:00;25;20;
51052;PMS5003;37093;37.716;-122.060;2022-08-30T02:48:29;27;20;
51052;PMS5003;37093;37.716;-122.060;2022-08-30T02:51:02;20;16;
51052;PMS5003;37093;37.716;-122.060;2022-08-30T02:53:31;29;18;
51052;PMS5003;37093;37.716;-122.060;2022-08-30T02:56:00;28;19;
51052;PMS5003;37093;37.716;-122.060;2022-08-30T02:58:29;16;16;
51052;PMS5003;37093;37.716;-122.060;2022-08-30T03:00:57;29;20;
51052;PMS5003;37093;37.716;-122.060;2022-08-30T03:03:26;20;17;
51052;PMS5003;37093;37.716;-122.060;2022-08-30T03:05:54;22;19;
51052;PMS5003;37093;37.716;-122.060;2022-08-30T03:08:24;24;22;
51052;PMS5003;37093;37.716;-122.060;2022-08-30T03:10:52;23;20;
51052;PMS5003;37093;37.716;-122.060;2022-08-30T03:13:20;22;17;
51052;PMS5003;37093;37.716;-122.060;2022-08-30T03:15:50;25;19;
51052;PMS5003;37093;37.716;-122.060;2022-08-30T03:18:19;33;24;
51052;PMS5003;37093;37.716;-122.060;2022-08-30T03:20:48;20;18;
51052;PMS5003;37093;37.716;-122.060;2022-08-30T03:23:17;26;19;
51052;PMS5003;37093;37.716;-122.060;2022-08-30T03:25:45;17;17;
51052;PMS5003;37093;37.716;-122.060;2022-08-30T03:28:13;30;22;
51052;PMS5003;37093;37.716;-122.060;2022-08-30T03:30:42;23;20;
51052;PMS5003;37093;37.716;-122.060;2022-08-30T03:33:12;23;20;
51052;PMS5003;37093;37.716;-122.060;2022-08-30T03:35:40;20;19;
51052;PMS5003;37093;37.716;-122.060;2022-08-30T03:38:09;31;21;
51052;PMS5003;37093;37.716;-122.060;2022-08-30T03:40:37;26;25;
51052;PMS5003;37093;37.716;-122.060;2022-08-30T03:43:06;30;23;
51052;PMS5003;37093;37.716;-122.060;2022-08-30T03:45:34;24;20;
51052;PMS5003;37093;37.716;-122.060;2022-08-30T03:48:03;21;21;
51052;PMS5003;37093;37.716;-122.060;2022-08-30T03:50:31;23;21;
51052;PMS5003;37093;37.716;-122.060;2022-08-30T03:53:00;29;22;
51052;PMS5003;37093;37.716;-122.060;2022-08-30T03:55:29;22;19;
51052;PMS5003;37093;37.716;-122.060;2022-08-30T03:57:57;20;16;
51052;PMS5003;37093;37.716;-122.060;2022-08-30T04:00:26;28;21;
51052;PMS5003;37093;37.716;-122.060;2022-08-30T04:02:54;26;18;
51052;PMS5003;37093;37.716;-122.060;2022-08-30T04:05:22;26;21;
51052;PMS5003;37093;37.716;-122.060;2022-08-30T04:07:51;29;20;
51052;PMS5003;37093;37.716;-122.060;2022-08-30T04:10:19;25;22;
51052;PMS5003;37093;37.716;-122.060;2022-08-30T04:12:48;23;19;
51052;PMS5003;37093;37.716;-122.060;2022-08-30T04:15:18;25;21;
51052;PMS5003;37093;37.716;-122.060;2022-08-30T04:17:47;26;19;
51052;PMS5003;37093;37.716;-122.060;2022-08-30T04:20:15;26;18;
51052;PMS5003;37093;37.716;-122.060;2022-08-30T04:22:44;28;22;
51052;PMS5003;37093;37.716;-122.060;2022-08-30T04:25:12;24;23;
51052;PMS5003;37093;37.716;-122.060;2022-08-30T04:27:41;31;21;
51052;PMS5003;37093;37.716;-122.060;2022-08-30T04:30:13;26;22;
51052;PMS5003;37093;37.716;-122.060;2022-08-30T04:32:43;23;19;
51052;PMS5003;37093;37.716;-122.060;2022-08-30T04:35:12;22;19;
51052;PMS5003;37093;37.716;-122.060;2022-08-30T04:37:41;30;19;
51052;PMS5003;37093;37.716;-122.060;2022-08-30T04:40:10;27;23;
51052;PMS5003;37093;37.716;-122.060;2022-08-30T04:42:39;27;21;
51052;PMS5003;37093;37.716;-122.060;2022-08-30T04:45:10;22;20;
51052;PMS5003;37093;37.716;-122.060;2022-08-30T04:47:42;28;20;
51052;PMS5003;37093;37.716;-122.060;2022-08-30T04:50:12;22;18;
51052;PMS5003;37093;37.716;-122.060;2022-08-30T04:52:44;23;20;
51052;PMS5003;37093;37.716;-122.060;2022-08-30T04:55:13;30;21;
51052;PMS5003;37093;37.716;-122.060;2022-08-30T04:57:42;30;24;
51052;PMS5003;37093;37.716;-122.060;2022-08-30T05:00:10;24;18;
51052;PMS5003;37093;37.716;-122.060;2022-08-30T05:02:40;31;19;
51052;PMS5003;37093;37.716;-122.060;2022-08-30T05:05:09;23;21;
51052;PMS5003;37093;37.716;-122.060;2022-08-30T05:07:38;23;22;
51052;PMS5003;37093;37.716;-122.060;2022-08-30T05:10:06;25;20;
51052;PMS5003;37093;37.716;-122.060;2022-08-30T05:12:35;22;22;
51052;PMS5003;37093;37.716;-122.060;2022-08-30T05:15:04;34;24;
51052;PMS5003;37093;37.716;-122.060;2022-08-30T05:17:34;24;23;
51052;PMS5003;37093;37.716;-122.060;2022-08-30T05:20:04;22;21;
51052;PMS5003;37093;37.716;-122.060;2022-08-30T05:22:34;26;20;
51052;PMS5003;37093;37.716;-122.060;2022-08-30T05:25:03;25;23;
51052;PMS5003;37093;37.716;-122.060;2022-08-30T05:27:33;24;20;
51052;PMS5003;37093;37.716;-122.060;2022-08-30T05:30:02;27;21;
51052;PMS5003;37093;37.716;-122.060;2022-08-30T05:32:31;25;22;
51052;PMS5003;37093;37.716;-122.060;2022-08-30T05:35:00;23;21;
51052;PMS5003;37093;37.716;-122.060;2022-08-30T05:37:30;22;21;
51052;PMS5003;37093;37.716;-122.060;2022-08-30T05:39:59;30;25;
51052;PMS5003;37093;37.716;-122.060;2022-08-30T05:42:28;31;22;
51052;PMS5003;37093;37.716;-122.060;2022-08-30T05:44:56;35;24;
51052;PMS5003;37093;37.716;-122.060;2022-08-30T05:47:25;25;20;
51052;PMS5003;37093;37.716;-122.060;2022-08-30T05:49:54;26;22;
51052;PMS5003;37093;37.716;-122.060;2022-08-30T05:52:22;23;21;
51052;PMS5003;37093;37.716;-122.060;2022-08-30T05:54:51;26;21;
51052;PMS5003;37093;37.716;-122.060;2022-08-30T05:57:21;30;21;
51052;PMS5003;37093;37.716;-122.060;2022-08-30T05:59:49;30;24;
51052;PMS5003;37093;37.716;-122.060;2022-08-30T06:02:18;31;23;
51052;PMS5003;37093;37.716;-122.060;2022-08-30T06:04:46;25;22;
51052;PMS5003;37093;37.716;-122.060;2022-08-30T06:07:14;31;23;
51052;PMS5003;37093;37.716;-122.060;2022-08-30T06:09:42;30;26;
51052;PMS5003;37093;37.716;-122.060;2022-08-30T06:12:11;29;21;
51052;PMS5003;37093;37.716;-122.060;2022-08-30T06:14:39;26;22;
51052;PMS5003;37093;37.716;-122.060;2022-08-30T06:17:07;31;23;
51052;PMS5003;37093;37.716;-122.060;2022-08-30T06:19:35;34;26;
51052;PMS5003;37093;37.716;-122.060;2022-08-30T06:22:05;35;25;
51052;PMS5003;37093;37.716;-122.060;2022-08-30T06:24:33;29;26;
51052;PMS5003;37093;37.716;-122.060;2022-08-30T06:27:02;25;25;
51052;PMS5003;37093;37.716;-122.060;2022-08-30T06:29:30;34;23;
51052;PMS5003;37093;37.716;-122.060;2022-08-30T06:31:59;30;25;
51052;PMS5003;37093;37.716;-122.060;2022-08-30T06:34:27;37;27;
51052;PMS5003;37093;37.716;-122.060;2022-08-30T06:36:55;29;24;
51052;PMS5003;37093;37.716;-122.060;2022-08-30T06:39:24;40;27;
51052;PMS5003;37093;37.716;-122.060;2022-08-30T06:41:52;25;23;
51052;PMS5003;37093;37.716;-122.060;2022-08-30T06:44:20;27;24;
51052;PMS5003;37093;37.716;-122.060;2022-08-30T06:46:48;24;22;
51052;PMS5003;37093;37.716;-122.060;2022-08-30T06:49:17;27;23;
51052;PMS5003;37093;37.716;-122.060;2022-08-30T06:51:45;31;23;
51052;PMS5003;37093;37.716;-122.060;2022-08-30T06:54:13;26;25;
51052;PMS5003;37093;37.716;-122.060;2022-08-30T06:56:42;23;21;
51052;PMS5003;37093;37.716;-122.060;2022-08-30T06:59:10;34;25;
51052;PMS5003;37093;37.716;-122.060;2022-08-30T07:01:12;28;24;
51052;PMS5003;37093;37.716;-122.060;2022-08-30T07:03:44;31;22;
51052;PMS5003;37093;37.716;-122.060;2022-08-30T07:06:12;38;24;
51052;PMS5003;37093;37.716;-122.060;2022-08-30T07:08:42;26;22;
51052;PMS5003;37093;37.716;-122.060;2022-08-30T07:11:11;30;23;
51052;PMS5003;37093;37.716;-122.060;2022-08-30T07:13:39;24;22;
51052;PMS5003;37093;37.716;-122.060;2022-08-30T07:16:08;33;25;
51052;PMS5003;37093;37.716;-122.060;2022-08-30T07:18:37;36;27;
51052;PMS5003;37093;37.716;-122.060;2022-08-30T07:21:07;27;27;
51052;PMS5003;37093;37.716;-122.060;2022-08-30T07:23:36;29;25;
51052;PMS5003;37093;37.716;-122.060;2022-08-30T07:26:05;33;27;
51052;PMS5003;37093;37.716;-122.060;2022-08-30T07:28:36;38;28;
51052;PMS5003;37093;37.716;-122.060;2022-08-30T07:31:05;29;25;
51052;PMS5003;37093;37.716;-122.060;2022-08-30T07:33:34;26;24;
51052;PMS5003;37093;37.716;-122.060;2022-08-30T07:36:02;28;24;
51052;PMS5003;37093;37.716;-122.060;2022-08-30T07:38:31;30;24;
51052;PMS5003;37093;37.716;-122.060;2022-08-30T07:41:01;33;27;
51052;PMS5003;37093;37.716;-122.060;2022-08-30T07:43:30;34;28;
51052;PMS5003;37093;37.716;-122.060;2022-08-30T07:46:01;32;26;
51052;PMS5003;37093;37.716;-122.060;2022-08-30T07:48:30;33;26;
51052;PMS5003;37093;37.716;-122.060;2022-08-30T07:50:59;31;24;
51052;PMS5003;37093;37.716;-122.060;2022-08-30T07:53:28;34;27;
51052;PMS5003;37093;37.716;-122.060;2022-08-30T07:55:56;27;25;
51052;PMS5003;37093;37.716;-122.060;2022-08-30T07:58:24;36;26;
51052;PMS5003;37093;37.716;-122.060;2022-08-30T08:00:52;37;26;
51052;PMS5003;37093;37.716;-122.060;2022-08-30T08:03:21;39;30;
51052;PMS5003;37093;37.716;-122.060;2022-08-30T08:05:49;38;30;
51052;PMS5003;37093;37.716;-122.060;2022-08-30T08:08:18;46;30;
51052;PMS5003;37093;37.716;-122.060;2022-08-30T08:10:46;37;30;
51052;PMS5003;37093;37.716;-122.060;2022-08-30T08:13:14;42;29;
51052;PMS5003;37093;37.716;-122.060;2022-08-30T08:15:43;39;29;
51052;PMS5003;37093;37.716;-122.060;2022-08-30T08:18:11;33;26;
51052;PMS5003;37093;37.716;-122.060;2022-08-30T08:20:40;33;28;
51052;PMS5003;37093;37.716;-122.060;2022-08-30T08:23:08;36;28;
51052;PMS5003;37093;37.716;-122.060;2022-08-30T08:25:38;35;23;
51052;PMS5003;37093;37.716;-122.060;2022-08-30T08:28:07;32;26;
51052;PMS5003;37093;37.716;-122.060;2022-08-30T08:30:36;34;29;
51052;PMS5003;37093;37.716;-122.060;2022-08-30T08:33:05;40;29;
51052;PMS5003;37093;37.716;-122.060;2022-08-30T08:35:33;37;25;
51052;PMS5003;37093;37.716;-122.060;2022-08-30T08:38:02;39;28;
51052;PMS5003;37093;37.716;-122.060;2022-08-30T08:40:30;36;29;
51052;PMS5003;37093;37.716;-122.060;2022-08-30T08:43:10;36;28;
51052;PMS5003;37093;37.716;-122.060;2022-08-30T08:45:45;40;31;
51052;PMS5003;37093;37.716;-122.060;2022-08-30T08:48:26;32;32;
51052;PMS5003;37093;37.716;-122.060;2022-08-30T08:50:59;42;33;
51052;PMS5003;37093;37.716;-122.060;2022-08-30T08:53:32;38;29;
51052;PMS5003;37093;37.716;-122.060;2022-08-30T08:56:03;41;33;
51052;PMS5003;37093;37.716;-122.060;2022-08-30T08:58:38;44;31;
51052;PMS5003;37093;37.716;-122.060;2022-08-30T09:01:11;39;30;
51052;PMS5003;37093;37.716;-122.060;2022-08-30T09:03:42;39;34;
51052;PMS5003;37093;37.716;-122.060;2022-08-30T09:06:19;39;30;
51052;PMS5003;37093;37.716;-122.060;2022-08-30T09:09:00;38;31;
51052;PMS5003;37093;37.716;-122.060;2022-08-30T09:11:30;33;30;
51052;PMS5003;37093;37.716;-122.060;2022-08-30T09:13:59;42;32;
51052;PMS5003;37093;37.716;-122.060;2022-08-30T09:17:02;40;28;
51052;PMS5003;37093;37.716;-122.060;2022-08-30T09:19:35;37;33;
51052;PMS5003;37093;37.716;-122.060;2022-08-30T09:22:11;42;31;
51052;PMS5003;37093;37.716;-122.060;2022-08-30T09:24:45;42;33;
51052;PMS5003;37093;37.716;-122.060;2022-08-30T09:27:17;41;37;
51052;PMS5003;37093;37.716;-122.060;2022-08-30T09:29:50;43;36;
51052;PMS5003;37093;37.716;-122.060;2022-08-30T09:32:23;40;34;
51052;PMS5003;37093;37.716;-122.060;2022-08-30T09:34:53;33;26;
51052;PMS5003;37093;37.716;-122.060;2022-08-30T09:37:24;36;32;
51052;PMS5003;37093;37.716;-122.060;2022-08-30T09:39:57;44;35;
51052;PMS5003;37093;37.716;-122.060;2022-08-30T09:42:27;40;32;
51052;PMS5003;37093;37.716;-122.060;2022-08-30T09:44:57;39;35;
51052;PMS5003;37093;37.716;-122.060;2022-08-30T09:47:27;41;31;
51052;PMS5003;37093;37.716;-122.060;2022-08-30T09:50:03;42;30;
51052;PMS5003;37093;37.716;-122.060;2022-08-30T09:52:35;38;30;
51052;PMS5003;37093;37.716;-122.060;2022-08-30T09:55:16;44;36;
51052;PMS5003;37093;37.716;-122.060;2022-08-30T09:58:02;43;33;
51052;PMS5003;37093;37.716;-122.060;2022-08-30T10:00:39;39;32;
51052;PMS5003;37093;37.716;-122.060;2022-08-30T10:03:16;33;29;
51052;PMS5003;37093;37.716;-122.060;2022-08-30T10:05:55;40;28;
51052;PMS5003;37093;37.716;-122.060;2022-08-30T10:08:39;32;26;
51052;PMS5003;37093;37.716;-122.060;2022-08-30T10:11:19;39;32;
51052;PMS5003;37093;37.716;-122.060;2022-08-30T10:14:03;42;31;
51052;PMS5003;37093;37.716;-122.060;2022-08-30T10:17:14;43;36;
51052;PMS5003;37093;37.716;-122.060;2022-08-30T10:19:55;41;36;
51052;PMS5003;37093;37.716;-122.060;2022-08-30T10:22:30;45;35;
51052;PMS5003;37093;37.716;-122.060;2022-08-30T10:25:06;36;32;
51052;PMS5003;37093;37.716;-122.060;2022-08-30T10:27:40;34;31;
51052;PMS5003;37093;37.716;-122.060;2022-08-30T10:30:13;51;40;
51052;PMS5003;37093;37.716;-122.060;2022-08-30T10:32:44;38;33;
51052;PMS5003;37093;37.716;-122.060;2022-08-30T10:35:17;43;31;
51052;PMS5003;37093;37.716;-122.060;2022-08-30T10:37:49;38;29;
51052;PMS5003;37093;37.716;-122.060;2022-08-30T10:40:23;33;31;
51052;PMS5003;37093;37.716;-122.060;2022-08-30T10:42:56;34;31;
51052;PMS5003;37093;37.716;-122.060;2022-08-30T10:45:28;39;30;
51052;PMS5003;37093;37.716;-122.060;2022-08-30T10:48:02;41;33;
51052;PMS5003;37093;37.716;-122.060;2022-08-30T10:50:39;41;31;
51052;PMS5003;37093;37.716;-122.060;2022-08-30T10:53:12;40;32;
51052;PMS5003;37093;37.716;-122.060;2022-08-30T10:55:46;45;34;
51052;PMS5003;37093;37.716;-122.060;2022-08-30T10:58:19;35;31;
51052;PMS5003;37093;37.716;-122.060;2022-08-30T11:00:53;45;33;
51052;PMS5003;37093;37.716;-122.060;2022-08-30T11:03:37;42;35;
51052;PMS5003;37093;37.716;-122.060;2022-08-30T11:06:39;49;36;
51052;PMS5003;37093;37.716;-122.060;2022-08-30T11:09:19;39;32;
51052;PMS5003;37093;37.716;-122.060;2022-08-30T11:12:00;44;33;
51052;PMS5003;37093;37.716;-122.060;2022-08-30T11:14:48;40;30;
51052;PMS5003;37093;37.716;-122.060;2022-08-30T11:17:22;37;33;
51052;PMS5003;37093;37.716;-122.060;2022-08-30T11:19:56;36;32;
51052;PMS5003;37093;37.716;-122.060;2022-08-30T11:22:28;43;35;
51052;PMS5003;37093;37.716;-122.060;2022-08-30T11:25:00;44;34;
51052;PMS5003;37093;37.716;-122.060;2022-08-30T11:27:40;41;30;
51052;PMS5003;37093;37.716;-122.060;2022-08-30T11:31:28;43;36;
51052;PMS5003;37093;37.716;-122.060;2022-08-30T11:34:01;43;33;
51052;PMS5003;37093;37.716;-122.060;2022-08-30T11:37:03;38;33;
51052;PMS5003;37093;37.716;-122.060;2022-08-30T11:39:53;38;32;
51052;PMS5003;37093;37.716;-122.060;2022-08-30T11:42:25;35;33;
51052;PMS5003;37093;37.716;-122.060;2022-08-30T11:47:47;43;32;
51052;PMS5003;37093;37.716;-122.060;2022-08-30T11:50:17;35;31;
51052;PMS5003;37093;37.716;-122.060;2022-08-30T11:52:54;37;32;
51052;PMS5003;37093;37.716;-122.060;2022-08-30T11:55:33;40;35;
51052;PMS5003;37093;37.716;-122.060;2022-08-30T11:58:14;35;31;
51052;PMS5003;37093;37.716;-122.060;2022-08-30T12:00:50;42;34;
51052;PMS5003;37093;37.716;-122.060;2022-08-30T12:03:43;38;31;
51052;PMS5003;37093;37.716;-122.060;2022-08-30T12:06:42;52;40;
51052;PMS5003;37093;37.716;-122.060;2022-08-30T12:09:57;35;32;
51052;PMS5003;37093;37.716;-122.060;2022-08-30T12:12:58;40;30;
51052;PMS5003;37093;37.716;-122.060;2022-08-30T12:15:28;42;33;
51052;PMS5003;37093;37.716;-122.060;2022-08-30T12:18:24;44;35;
51052;PMS5003;37093;37.716;-122.060;2022-08-30T12:21:01;43;35;
51052;PMS5003;37093;37.716;-122.060;2022-08-30T12:23:38;41;32;
51052;PMS5003;37093;37.716;-122.060;2022-08-30T12:26:15;43;35;
51052;PMS5003;37093;37.716;-122.060;2022-08-30T12:29:05;46;34;
51052;PMS5003;37093;37.716;-122.060;2022-08-30T12:31:39;39;31;
51052;PMS5003;37093;37.716;-122.060;2022-08-30T12:34:16;38;34;
51052;PMS5003;37093;37.716;-122.060;2022-08-30T12:36:50;46;34;
51052;PMS5003;37093;37.716;-122.060;2022-08-30T12:39:21;38;36;
51052;PMS5003;37093;37.716;-122.060;2022-08-30T12:41:52;36;35;
51052;PMS5003;37093;37.716;-122.060;2022-08-30T12:44:21;47;33;
51052;PMS5003;37093;37.716;-122.060;2022-08-30T12:46:54;40;32;
51052;PMS5003;37093;37.716;-122.060;2022-08-30T12:49:30;43;35;
51052;PMS5003;37093;37.716;-122.060;2022-08-30T12:52:19;39;31;
51052;PMS5003;37093;37.716;-122.060;2022-08-30T12:54:55;45;36;
51052;PMS5003;37093;37.716;-122.060;2022-08-30T12:57:38;40;33;
51052;PMS5003;37093;37.716;-122.060;2022-08-30T13:00:09;42;34;
51052;PMS5003;37093;37.716;-122.060;2022-08-30T13:02:51;45;36;
51052;PMS5003;37093;37.716;-122.060;2022-08-30T13:05:31;40;34;
51052;PMS5003;37093;37.716;-122.060;2022-08-30T13:08:10;40;36;
51052;PMS5003;37093;37.716;-122.060;2022-08-30T13:10:50;46;39;
51052;PMS5003;37093;37.716;-122.060;2022-08-30T13:13:28;43;35;
51052;PMS5003;37093;37.716;-122.060;2022-08-30T13:16:10;45;38;
51052;PMS5003;37093;37.716;-122.060;2022-08-30T13:18:48;43;35;
51052;PMS5003;37093;37.716;-122.060;2022-08-30T13:21:19;40;34;
51052;PMS5003;37093;37.716;-122.060;2022-08-30T13:23:50;49;35;
51052;PMS5003;37093;37.716;-122.060;2022-08-30T13:26:22;39;35;
51052;PMS5003;37093;37.716;-122.060;2022-08-30T13:28:51;37;32;
51052;PMS5003;37093;37.716;-122.060;2022-08-30T13:31:22;44;36;
51052;PMS5003;37093;37.716;-122.060;2022-08-30T13:33:51;38;35;
51052;PMS5003;37093;37.716;-122.060;2022-08-30T13:36:20;45;38;
51052;PMS5003;37093;37.716;-122.060;2022-08-30T13:38:53;47;36;
51052;PMS5003;37093;37.716;-122.060;2022-08-30T13:41:23;48;37;
51052;PMS5003;37093;37.716;-122.060;2022-08-30T13:43:51;38;34;
51052;PMS5003;37093;37.716;-122.060;2022-08-30T13:46:20;52;38;
51052;PMS5003;37093;37.716;-122.060;2022-08-30T13:48:50;49;37;
51052;PMS5003;37093;37.716;-122.060;2022-08-30T13:51:25;38;33;
51052;PMS5003;37093;37.716;-122.060;2022-08-30T13:53:54;51;33;
51052;PMS5003;37093;37.716;-122.060;2022-08-30T13:56:22;41;38;
51052;PMS5003;37093;37.716;-122.060;2022-08-30T13:58:51;53;42;
51052;PMS5003;37093;37.716;-122.060;2022-08-30T14:01:20;44;37;
51052;PMS5003;37093;37.716;-122.060;2022-08-30T14:03:48;46;38;
51052;PMS5003;37093;37.716;-122.060;2022-08-30T14:06:16;51;38;
51052;PMS5003;37093;37.716;-122.060;2022-08-30T14:08:44;49;36;
51052;PMS5003;37093;37.716;-122.060;2022-08-30T14:11:13;45;37;
51052;PMS5003;37093;37.716;-122.060;2022-08-30T14:13:43;40;31;
51052;PMS5003;37093;37.716;-122.060;2022-08-30T14:16:12;37;35;
51052;PMS5003;37093;37.716;-122.060;2022-08-30T14:18:40;47;36;
51052;PMS5003;37093;37.716;-122.060;2022-08-30T14:21:08;39;34;
51052;PMS5003;37093;37.716;-122.060;2022-08-30T14:23:37;45;34;
51052;PMS5003;37093;37.716;-122.060;2022-08-30T14:26:08;44;35;
51052;PMS5003;37093;37.716;-122.060;2022-08-30T14:28:41;46;35;
51052;PMS5003;37093;37.716;-122.060;2022-08-30T14:31:09;37;32;
51052;PMS5003;37093;37.716;-122.060;2022-08-30T14:33:38;47;40;
51052;PMS5003;37093;37.716;-122.060;2022-08-30T14:36:06;40;36;
51052;PMS5003;37093;37.716;-122.060;2022-08-30T14:38:35;47;35;
51052;PMS5003;37093;37.716;-122.060;2022-08-30T14:41:03;50;35;
51052;PMS5003;37093;37.716;-122.060;2022-08-30T14:43:33;38;32;
51052;PMS5003;37093;37.716;-122.060;2022-08-30T14:46:01;43;36;
51052;PMS5003;37093;37.716;-122.060;2022-08-30T14:48:29;42;35;
51052;PMS5003;37093;37.716;-122.060;2022-08-30T14:50:57;32;32;
51052;PMS5003;37093;37.716;-122.060;2022-08-30T14:53:27;37;34;
51052;PMS5003;37093;37.716;-122.060;2022-08-30T14:55:55;39;31;
51052;PMS5003;37093;37.716;-122.060;2022-08-30T14:58:23;36;33;
51052;PMS5003;37093;37.716;-122.060;2022-08-30T15:00:51;42;32;
51052;PMS5003;37093;37.716;-122.060;2022-08-30T15:03:20;43;34;
51052;PMS5003;37093;37.716;-122.060;2022-08-30T15:05:49;42;31;
51052;PMS5003;37093;37.716;-122.060;2022-08-30T15:08:17;38;30;
51052;PMS5003;37093;37.716;-122.060;2022-08-30T15:10:46;34;32;
51052;PMS5003;37093;37.716;-122.060;2022-08-30T15:13:14;43;35;
51052;PMS5003;37093;37.716;-122.060;2022-08-30T15:15:42;45;33;
51052;PMS5003;37093;37.716;-122.060;2022-08-30T15:18:11;33;29;
51052;PMS5003;37093;37.716;-122.060;2022-08-30T15:20:43;49;36;
51052;PMS5003;37093;37.716;-122.060;2022-08-30T15:23:12;48;36;
51052;PMS5003;37093;37.716;-122.060;2022-08-30T15:25:42;39;32;
51052;PMS5003;37093;37.716;-122.060;2022-08-30T15:28:11;44;38;
51052;PMS5003;37093;37.716;-122.060;2022-08-30T15:30:39;46;36;
51052;PMS5003;37093;37.716;-122.060;2022-08-30T15:33:08;52;40;
51052;PMS5003;37093;37.716;-122.060;2022-08-30T15:35:36;45;35;
51052;PMS5003;37093;37.716;-122.060;2022-08-30T15:38:05;41;37;
51052;PMS5003;37093;37.716;-122.060;2022-08-30T15:40:33;51;39;
51052;PMS5003;37093;37.716;-122.060;2022-08-30T15:43:02;48;37;
51052;PMS5003;37093;37.716;-122.060;2022-08-30T15:45:30;48;37;
51052;PMS5003;37093;37.716;-122.060;2022-08-30T15:47:59;55;39;
51052;PMS5003;37093;37.716;-122.060;2022-08-30T15:50:27;54;40;
51052;PMS5003;37093;37.716;-122.060;2022-08-30T15:53:01;48;42;
51052;PMS5003;37093;37.716;-122.060;2022-08-30T15:55:31;46;38;
51052;PMS5003;37093;37.716;-122.060;2022-08-30T15:57:59;51;43;
51052;PMS5003;37093;37.716;-122.060;2022-08-30T16:00:27;46;38;
51052;PMS5003;37093;37.716;-122.060;2022-08-30T16:02:56;46;38;